createdAt,value
2022-08-26T00:00:19.821Z,77.05
2022-08-26T00:01:28.941Z,77.24
2022-08-26T00:02:31.283Z,77.33
2022-08-26T00:03:32.840Z,77.14
2022-08-26T00:04:34.498Z,77.18
2022-08-26T00:05:36.470Z,76.85
2022-08-26T00:06:39.079Z,75.99
2022-08-26T00:07:44.255Z,75.33
2022-08-26T00:08:45.795Z,75.23
2022-08-26T00:09:48.342Z,75.16
2022-08-26T00:10:51.635Z,75.68
2022-08-26T00:11:53.917Z,76.22
2022-08-26T00:12:55.402Z,77.15
2022-08-26T00:13:58.276Z,77.96
2022-08-26T00:14:59.778Z,78.35
2022-08-26T00:16:05.145Z,78.50
2022-08-26T00:17:06.659Z,78.84
2022-08-26T00:18:16.860Z,79.06
2022-08-26T00:19:24.099Z,79.33
2022-08-26T00:20:28.653Z,79.56
2022-08-26T00:21:30.252Z,79.70
2022-08-26T00:22:31.874Z,79.86
2022-08-26T00:23:33.549Z,80.12
2022-08-26T00:24:35.114Z,80.13
2022-08-26T00:25:37.559Z,80.68
2022-08-26T00:26:44.010Z,81.08
2022-08-26T00:27:50.015Z,81.32
2022-08-26T00:28:53.709Z,81.25
2022-08-26T00:29:55.233Z,81.57
2022-08-26T00:30:58.367Z,81.64
2022-08-26T00:32:01.212Z,81.91
2022-08-26T00:33:03.487Z,81.42
2022-08-26T00:34:07.167Z,81.75
2022-08-26T00:35:11.454Z,81.93
2022-08-26T00:36:12.944Z,81.95
2022-08-26T00:37:22.001Z,82.35
2022-08-26T00:38:24.101Z,82.03
2022-08-26T00:39:25.615Z,82.54
2022-08-26T00:40:29.627Z,82.34
2022-08-26T00:41:31.135Z,82.46
2022-08-26T00:42:32.646Z,82.55
2022-08-26T00:43:47.459Z,82.77
2022-08-26T00:44:51.460Z,82.67
2022-08-26T00:45:59.334Z,82.70
2022-08-26T00:47:05.825Z,82.76
2022-08-26T00:48:09.091Z,82.86
2022-08-26T00:49:15.673Z,82.79
2022-08-26T00:50:21.690Z,82.89
2022-08-26T00:51:29.870Z,82.95
2022-08-26T00:52:31.711Z,82.82
2022-08-26T00:53:41.401Z,82.52
2022-08-26T00:54:47.052Z,82.30
2022-08-26T00:55:54.913Z,81.98
2022-08-26T00:57:02.252Z,81.75
2022-08-26T00:58:03.943Z,80.67
2022-08-26T00:59:08.075Z,80.21
2022-08-26T01:00:15.007Z,79.91
2022-08-26T01:01:17.432Z,79.57
2022-08-26T01:02:21.536Z,79.31
2022-08-26T01:03:25.806Z,78.82
2022-08-26T01:04:29.053Z,78.82
2022-08-26T01:05:30.848Z,78.78
2022-08-26T01:06:32.483Z,78.49
2022-08-26T01:07:35.091Z,78.53
2022-08-26T01:08:36.636Z,78.12
2022-08-26T01:09:38.241Z,78.41
2022-08-26T01:10:42.024Z,78.47
2022-08-26T01:11:47.052Z,78.34
2022-08-26T01:12:53.674Z,78.47
2022-08-26T01:13:59.003Z,78.44
2022-08-26T01:15:00.680Z,78.38
2022-08-26T01:16:05.082Z,78.33
2022-08-26T01:17:08.119Z,78.00
2022-08-26T01:18:12.938Z,77.95
2022-08-26T01:19:20.345Z,77.82
2022-08-26T01:20:28.879Z,77.80
2022-08-26T01:21:35.959Z,77.92
2022-08-26T01:22:52.672Z,77.84
2022-08-26T01:23:57.655Z,77.69
2022-08-26T01:25:00.689Z,77.83
2022-08-26T01:26:09.256Z,77.91
2022-08-26T01:27:21.232Z,77.48
2022-08-26T01:28:27.702Z,77.63
2022-08-26T01:29:31.233Z,77.54
2022-08-26T01:30:34.131Z,77.57
2022-08-26T01:31:40.185Z,77.66
2022-08-26T01:32:42.812Z,77.43
2022-08-26T01:33:53.739Z,77.03
2022-08-26T01:34:55.267Z,77.46
2022-08-26T01:35:56.815Z,77.54
2022-08-26T01:37:04.802Z,78.23
2022-08-26T01:38:08.565Z,78.69
2022-08-26T01:39:10.929Z,79.66
2022-08-26T01:40:18.215Z,80.45
2022-08-26T01:41:27.462Z,81.00
2022-08-26T01:42:30.560Z,81.30
2022-08-26T01:43:33.838Z,81.42
2022-08-26T01:44:41.287Z,81.43
2022-08-26T01:45:44.476Z,81.82
2022-08-26T01:46:48.961Z,81.64
2022-08-26T01:47:56.630Z,81.72
2022-08-26T01:49:01.716Z,81.88
2022-08-26T01:50:08.998Z,81.85
2022-08-26T01:51:13.367Z,82.04
2022-08-26T01:52:21.752Z,82.07
2022-08-26T01:53:25.416Z,82.16
2022-08-26T01:54:27.119Z,82.55
2022-08-26T01:55:33.081Z,82.63
2022-08-26T01:56:36.533Z,82.77
2022-08-26T01:57:38.303Z,83.12
2022-08-26T01:58:42.843Z,83.16
2022-08-26T01:59:44.767Z,83.63
2022-08-26T02:00:46.909Z,83.56
2022-08-26T02:01:48.793Z,83.83
2022-08-26T02:02:54.468Z,84.01
2022-08-26T02:04:02.824Z,84.30
2022-08-26T02:05:07.048Z,84.14
2022-08-26T02:06:09.429Z,84.33
2022-08-26T02:07:12.242Z,84.33
2022-08-26T02:08:17.201Z,84.39
2022-08-26T02:09:27.507Z,84.65
2022-08-26T02:10:29.005Z,84.90
2022-08-26T02:11:31.018Z,85.01
2022-08-26T02:12:33.867Z,85.20
2022-08-26T02:13:39.971Z,85.48
2022-08-26T02:14:46.130Z,85.47
2022-08-26T02:15:48.429Z,85.62
2022-08-26T02:16:52.950Z,85.63
2022-08-26T02:17:55.398Z,85.61
2022-08-26T02:19:00.156Z,85.71
2022-08-26T02:20:02.950Z,85.48
2022-08-26T02:21:06.752Z,85.59
2022-08-26T02:22:12.845Z,85.36
2022-08-26T02:23:14.393Z,85.34
2022-08-26T02:24:18.773Z,85.41
2022-08-26T02:25:27.983Z,85.58
2022-08-26T02:26:29.460Z,85.80
2022-08-26T02:27:33.455Z,85.84
2022-08-26T02:28:40.626Z,85.80
2022-08-26T02:29:45.379Z,85.88
2022-08-26T02:30:47.224Z,85.78
2022-08-26T02:31:50.393Z,85.78
2022-08-26T02:32:52.313Z,86.15
2022-08-26T02:33:53.802Z,85.68
2022-08-26T02:34:55.289Z,85.37
2022-08-26T02:35:56.922Z,85.59
2022-08-26T02:36:59.814Z,85.91
2022-08-26T02:38:01.794Z,86.09
2022-08-26T02:39:11.658Z,86.31
2022-08-26T02:40:16.403Z,86.75
2022-08-26T02:41:19.327Z,86.65
2022-08-26T02:42:20.817Z,86.94
2022-08-26T02:43:31.194Z,87.11
2022-08-26T02:44:33.486Z,87.08
2022-08-26T02:45:35.406Z,87.15
2022-08-26T02:46:37.257Z,87.13
2022-08-26T02:47:38.950Z,87.20
2022-08-26T02:48:40.646Z,87.42
2022-08-26T02:49:44.261Z,87.82
2022-08-26T02:50:45.956Z,87.71
2022-08-26T02:51:47.719Z,87.49
2022-08-26T02:52:49.312Z,87.61
2022-08-26T02:53:51.776Z,87.56
2022-08-26T02:54:53.298Z,87.95
2022-08-26T02:55:54.996Z,88.19
2022-08-26T02:56:57.826Z,88.30
2022-08-26T02:58:00.220Z,88.45
2022-08-26T02:59:02.038Z,88.66
2022-08-26T03:00:06.342Z,89.07
2022-08-26T03:01:08.095Z,89.13
2022-08-26T03:02:09.762Z,89.49
2022-08-26T03:03:11.241Z,89.48
2022-08-26T03:04:14.195Z,89.48
2022-08-26T03:05:17.502Z,89.64
2022-08-26T03:06:19.062Z,89.43
2022-08-26T03:07:20.514Z,90.09
2022-08-26T03:08:22.906Z,90.27
2022-08-26T03:09:24.929Z,90.40
2022-08-26T03:10:26.532Z,90.58
2022-08-26T03:11:32.760Z,90.70
2022-08-26T03:12:36.363Z,90.42
2022-08-26T03:13:38.084Z,90.63
2022-08-26T03:14:40.178Z,90.77
2022-08-26T03:15:41.850Z,90.79
2022-08-26T03:16:44.429Z,90.55
2022-08-26T03:17:50.368Z,90.43
2022-08-26T03:18:52.599Z,90.47
2022-08-26T03:19:57.283Z,90.28
2022-08-26T03:20:59.049Z,90.23
2022-08-26T03:22:00.526Z,90.08
2022-08-26T03:23:02.039Z,89.19
2022-08-26T03:24:06.220Z,88.50
2022-08-26T03:25:11.385Z,88.00
2022-08-26T03:26:15.359Z,88.59
2022-08-26T03:27:17.998Z,89.00
2022-08-26T03:28:21.129Z,89.54
2022-08-26T03:29:23.515Z,89.95
2022-08-26T03:30:25.076Z,90.15
2022-08-26T03:31:28.518Z,90.44
2022-08-26T03:32:30.015Z,90.75
2022-08-26T03:33:31.730Z,90.76
2022-08-26T03:34:33.689Z,90.88
2022-08-26T03:35:35.377Z,91.18
2022-08-26T03:36:36.837Z,91.10
2022-08-26T03:37:39.017Z,91.27
2022-08-26T03:38:40.575Z,91.24
2022-08-26T03:39:42.196Z,91.24
2022-08-26T03:40:44.023Z,91.37
2022-08-26T03:41:45.610Z,91.39
2022-08-26T03:42:47.660Z,91.29
2022-08-26T03:43:51.258Z,91.42
2022-08-26T03:44:52.796Z,91.41
2022-08-26T03:45:55.081Z,91.99
2022-08-26T03:46:56.562Z,91.87
2022-08-26T03:47:58.428Z,91.85
2022-08-26T03:49:01.792Z,92.00
2022-08-26T03:50:03.889Z,92.40
2022-08-26T03:51:11.992Z,92.28
2022-08-26T03:52:15.443Z,92.40
2022-08-26T03:53:16.902Z,92.59
2022-08-26T03:54:22.058Z,93.02
2022-08-26T03:55:25.374Z,93.17
2022-08-26T03:56:28.879Z,93.77
2022-08-26T03:57:30.428Z,93.81
2022-08-26T03:58:32.336Z,93.71
2022-08-26T03:59:35.149Z,93.38
2022-08-26T04:00:38.557Z,93.36
2022-08-26T04:01:40.295Z,93.13
2022-08-26T04:02:45.022Z,93.19
2022-08-26T04:03:46.942Z,93.21
2022-08-26T04:04:48.453Z,93.28
2022-08-26T04:05:51.714Z,93.12
2022-08-26T04:06:57.296Z,92.28
2022-08-26T04:07:58.845Z,91.85
2022-08-26T04:09:03.412Z,91.68
2022-08-26T04:10:07.177Z,91.67
2022-08-26T04:11:08.675Z,91.45
2022-08-26T04:12:11.675Z,91.74
2022-08-26T04:13:13.167Z,91.10
2022-08-26T04:14:17.497Z,90.55
2022-08-26T04:15:21.023Z,89.80
2022-08-26T04:16:23.014Z,89.15
2022-08-26T04:17:27.523Z,89.42
2022-08-26T04:18:33.002Z,90.00
2022-08-26T04:19:38.711Z,90.32
2022-08-26T04:20:40.196Z,90.62
2022-08-26T04:21:42.269Z,90.93
2022-08-26T04:22:44.181Z,91.58
2022-08-26T04:23:47.567Z,92.07
2022-08-26T04:24:49.606Z,92.04
2022-08-26T04:25:51.502Z,92.16
2022-08-26T04:26:53.107Z,91.83
2022-08-26T04:27:54.559Z,92.00
2022-08-26T04:28:56.022Z,91.81
2022-08-26T04:29:57.746Z,91.91
2022-08-26T04:31:00.679Z,91.28
2022-08-26T04:32:02.562Z,90.86
2022-08-26T04:33:04.155Z,89.79
2022-08-26T04:34:15.072Z,88.59
2022-08-26T04:35:16.675Z,87.77
2022-08-26T04:36:20.201Z,86.93
2022-08-26T04:37:21.926Z,86.45
2022-08-26T04:38:24.109Z,86.28
2022-08-26T04:39:27.719Z,85.86
2022-08-26T04:40:29.477Z,85.93
2022-08-26T04:41:31.652Z,85.49
2022-08-26T04:42:33.220Z,84.59
2022-08-26T04:43:35.789Z,84.02
2022-08-26T04:44:37.292Z,83.95
2022-08-26T04:45:40.404Z,84.43
2022-08-26T04:46:43.957Z,84.05
2022-08-26T04:47:45.654Z,83.93
2022-08-26T04:48:47.307Z,84.12
2022-08-26T04:49:48.783Z,84.01
2022-08-26T04:50:50.340Z,83.83
2022-08-26T04:51:51.835Z,83.86
2022-08-26T04:52:53.700Z,83.95
2022-08-26T04:53:56.126Z,83.89
2022-08-26T04:54:57.783Z,83.96
2022-08-26T04:55:59.294Z,84.34
2022-08-26T04:57:00.848Z,84.35
2022-08-26T04:58:02.294Z,84.27
2022-08-26T04:59:06.499Z,84.19
2022-08-26T05:00:10.402Z,83.79
2022-08-26T05:01:12.638Z,83.94
2022-08-26T05:02:15.498Z,83.49
2022-08-26T05:03:17.921Z,83.63
2022-08-26T05:04:20.840Z,83.57
2022-08-26T05:05:22.413Z,83.39
2022-08-26T05:06:24.132Z,83.84
2022-08-26T05:07:26.163Z,83.08
2022-08-26T05:08:27.643Z,83.40
2022-08-26T05:09:29.119Z,83.28
2022-08-26T05:10:31.981Z,82.77
2022-08-26T05:11:33.517Z,83.46
2022-08-26T05:12:35.487Z,83.97
2022-08-26T05:13:37.090Z,83.94
2022-08-26T05:14:38.594Z,82.93
2022-08-26T05:15:40.117Z,82.95
2022-08-26T05:16:42.795Z,83.49
2022-08-26T05:17:45.611Z,83.15
2022-08-26T05:18:47.151Z,83.21
2022-08-26T05:19:48.922Z,83.32
2022-08-26T05:20:54.695Z,83.00
2022-08-26T05:21:56.471Z,82.12
2022-08-26T05:22:58.889Z,81.05
2022-08-26T05:24:01.640Z,80.56
2022-08-26T05:25:03.849Z,80.89
2022-08-26T05:26:08.192Z,80.76
2022-08-26T05:27:11.603Z,80.00
2022-08-26T05:28:15.553Z,80.62
2022-08-26T05:29:17.231Z,80.66
2022-08-26T05:30:19.936Z,80.91
2022-08-26T05:31:24.069Z,80.30
2022-08-26T05:32:25.662Z,79.95
2022-08-26T05:33:30.063Z,79.47
2022-08-26T05:34:31.528Z,79.67
2022-08-26T05:35:33.527Z,79.05
2022-08-26T05:36:36.086Z,79.78
2022-08-26T05:37:38.585Z,81.57
2022-08-26T05:38:40.070Z,83.24
2022-08-26T05:39:43.584Z,82.34
2022-08-26T05:40:53.189Z,82.18
2022-08-26T05:41:54.752Z,81.18
2022-08-26T05:42:56.249Z,80.63
2022-08-26T05:44:00.268Z,79.88
2022-08-26T05:45:01.816Z,78.98
2022-08-26T05:46:06.765Z,78.93
2022-08-26T05:47:08.314Z,78.94
2022-08-26T05:48:10.542Z,78.27
2022-08-26T05:49:14.716Z,77.63
2022-08-26T05:50:17.686Z,76.97
2022-08-26T05:51:23.975Z,76.20
2022-08-26T05:52:27.316Z,75.57
2022-08-26T05:53:29.690Z,75.38
2022-08-26T05:54:31.156Z,75.54
2022-08-26T05:55:32.697Z,74.73
2022-08-26T05:56:34.458Z,76.50
2022-08-26T05:57:40.399Z,75.84
2022-08-26T05:58:44.389Z,75.44
2022-08-26T05:59:47.784Z,75.85
2022-08-26T06:00:57.847Z,74.44
2022-08-26T06:01:59.474Z,75.10
2022-08-26T06:03:01.045Z,74.85
2022-08-26T06:04:03.434Z,75.19
2022-08-26T06:05:06.689Z,76.15
2022-08-26T06:06:12.316Z,76.95
2022-08-26T06:07:13.822Z,78.50
2022-08-26T06:08:15.340Z,79.21
2022-08-26T06:09:20.726Z,79.83
2022-08-26T06:10:32.234Z,79.98
2022-08-26T06:11:34.593Z,78.86
2022-08-26T06:12:36.067Z,77.58
2022-08-26T06:13:39.021Z,78.03
2022-08-26T06:14:40.481Z,79.42
2022-08-26T06:15:43.400Z,78.67
2022-08-26T06:16:45.737Z,79.82
2022-08-26T06:17:47.185Z,79.96
2022-08-26T06:18:52.128Z,78.70
2022-08-26T06:19:53.590Z,77.89
2022-08-26T06:20:57.866Z,77.40
2022-08-26T06:21:59.771Z,77.98
2022-08-26T06:23:02.224Z,78.81
2022-08-26T06:24:07.568Z,78.34
2022-08-26T06:25:09.888Z,77.56
2022-08-26T06:26:12.752Z,77.83
2022-08-26T06:27:15.342Z,79.25
2022-08-26T06:28:17.076Z,77.15
2022-08-26T06:29:24.133Z,78.21
2022-08-26T06:30:26.482Z,78.55
2022-08-26T06:31:29.078Z,78.72
2022-08-26T06:32:30.805Z,77.32
2022-08-26T06:33:32.334Z,75.59
2022-08-26T06:34:33.860Z,75.72
2022-08-26T06:35:40.002Z,74.39
2022-08-26T06:36:44.717Z,72.88
2022-08-26T06:37:47.514Z,71.82
2022-08-26T06:38:50.290Z,70.88
2022-08-26T06:39:51.801Z,69.95
2022-08-26T06:40:54.186Z,69.88
2022-08-26T06:41:55.675Z,69.89
2022-08-26T06:42:57.126Z,68.70
2022-08-26T06:43:58.733Z,69.08
2022-08-26T06:45:00.211Z,69.46
2022-08-26T06:46:04.808Z,69.20
2022-08-26T06:47:06.886Z,68.90
2022-08-26T06:48:08.377Z,68.24
2022-08-26T06:49:12.312Z,67.98
2022-08-26T06:50:13.780Z,67.16
2022-08-26T06:51:18.024Z,68.07
2022-08-26T06:52:24.300Z,66.47
2022-08-26T06:53:26.135Z,65.74
2022-08-26T06:54:27.980Z,66.19
2022-08-26T06:55:29.924Z,65.34
2022-08-26T06:56:34.518Z,67.37
2022-08-26T06:57:37.687Z,67.72
2022-08-26T06:58:42.501Z,67.60
2022-08-26T06:59:43.993Z,70.63
2022-08-26T07:00:47.319Z,72.78
2022-08-26T07:01:49.801Z,74.05
2022-08-26T07:02:51.496Z,76.19
2022-08-26T07:03:55.351Z,73.12
2022-08-26T07:04:58.721Z,73.11
2022-08-26T07:06:03.952Z,72.13
2022-08-26T07:07:06.777Z,72.87
2022-08-26T07:08:12.496Z,73.56
2022-08-26T07:09:14.048Z,73.24
2022-08-26T07:10:15.821Z,73.79
2022-08-26T07:11:18.433Z,71.64
2022-08-26T07:12:20.009Z,70.93
2022-08-26T07:13:29.867Z,72.28
2022-08-26T07:14:33.877Z,73.33
2022-08-26T07:15:40.826Z,74.81
2022-08-26T07:16:42.386Z,72.90
2022-08-26T07:17:44.114Z,69.80
2022-08-26T07:18:46.162Z,69.20
2022-08-26T07:19:48.003Z,71.01
2022-08-26T07:20:50.781Z,69.48
2022-08-26T07:21:52.360Z,69.35
2022-08-26T07:22:57.110Z,73.26
2022-08-26T07:24:00.660Z,73.06
2022-08-26T07:25:03.865Z,72.39
2022-08-26T07:26:08.410Z,73.42
2022-08-26T07:27:12.202Z,72.85
2022-08-26T07:28:13.683Z,73.86
2022-08-26T07:29:15.173Z,72.66
2022-08-26T07:30:18.827Z,72.02
2022-08-26T07:31:22.777Z,71.30
2022-08-26T07:32:24.416Z,70.79
2022-08-26T07:33:25.905Z,71.74
2022-08-26T07:34:28.128Z,69.49
2022-08-26T07:35:29.646Z,68.96
2022-08-26T07:36:31.153Z,67.71
2022-08-26T07:37:35.471Z,69.11
2022-08-26T07:38:41.796Z,66.52
2022-08-26T07:39:45.508Z,65.47
2022-08-26T07:40:47.013Z,65.33
2022-08-26T07:41:48.469Z,64.38
2022-08-26T07:42:50.619Z,65.64
2022-08-26T07:43:52.490Z,64.07
2022-08-26T07:44:54.531Z,64.82
2022-08-26T07:45:56.645Z,65.75
2022-08-26T07:46:58.253Z,65.01
2022-08-26T07:47:59.884Z,64.87
2022-08-26T07:49:05.898Z,64.59
2022-08-26T07:50:09.128Z,64.43
2022-08-26T07:51:11.285Z,65.16
2022-08-26T07:52:12.782Z,64.71
2022-08-26T07:53:15.110Z,65.64
2022-08-26T07:54:20.075Z,65.71
2022-08-26T07:55:27.574Z,65.64
2022-08-26T07:56:29.301Z,65.58
2022-08-26T07:57:30.763Z,66.06
2022-08-26T07:58:32.299Z,66.42
2022-08-26T07:59:33.816Z,65.71
2022-08-26T08:00:35.354Z,66.02
2022-08-26T08:01:37.105Z,65.64
2022-08-26T08:02:40.549Z,64.60
2022-08-26T08:03:42.076Z,64.46
2022-08-26T08:04:43.618Z,64.15
2022-08-26T08:05:46.342Z,64.35
2022-08-26T08:06:48.427Z,64.33
2022-08-26T08:07:49.930Z,62.90
2022-08-26T08:08:55.880Z,62.31
2022-08-26T08:09:57.379Z,62.48
2022-08-26T08:11:00.177Z,63.43
2022-08-26T08:12:01.760Z,63.40
2022-08-26T08:13:05.316Z,62.43
2022-08-26T08:14:08.532Z,62.50
2022-08-26T08:15:11.820Z,62.11
2022-08-26T08:16:14.158Z,61.11
2022-08-26T08:17:16.384Z,61.68
2022-08-26T08:18:18.002Z,60.42
2022-08-26T08:19:22.432Z,61.29
2022-08-26T08:20:24.850Z,61.21
2022-08-26T08:21:27.422Z,60.75
2022-08-26T08:22:30.442Z,59.94
2022-08-26T08:23:32.505Z,59.09
2022-08-26T08:24:34.938Z,58.70
2022-08-26T08:25:36.419Z,58.52
2022-08-26T08:26:39.287Z,58.23
2022-08-26T08:27:42.509Z,57.21
2022-08-26T08:28:44.407Z,58.32
2022-08-26T08:29:49.423Z,58.91
2022-08-26T08:30:50.962Z,59.67
2022-08-26T08:31:56.676Z,58.39
2022-08-26T08:32:59.764Z,57.53
2022-08-26T08:34:02.014Z,57.54
2022-08-26T08:35:11.536Z,58.20
2022-08-26T08:36:13.465Z,56.29
2022-08-26T08:37:20.080Z,56.30
2022-08-26T08:38:22.471Z,56.10
2022-08-26T08:39:25.980Z,56.54
2022-08-26T08:40:27.879Z,59.18
2022-08-26T08:41:53.521Z,58.97
2022-08-26T08:43:01.163Z,62.96
2022-08-26T08:44:08.566Z,61.40
2022-08-26T08:45:15.018Z,61.02
2022-08-26T08:46:18.348Z,60.59
2022-08-26T08:47:28.943Z,63.82
2022-08-26T08:48:33.272Z,56.41
2022-08-26T08:49:34.876Z,59.17
2022-08-26T08:50:42.884Z,55.12
2022-08-26T08:51:51.833Z,58.12
2022-08-26T08:53:02.830Z,58.02
2022-08-26T08:54:08.632Z,60.12
2022-08-26T08:55:17.408Z,58.26
2022-08-26T08:56:26.596Z,57.50
2022-08-26T08:57:42.765Z,55.72
2022-08-26T08:58:57.048Z,55.90
2022-08-26T09:00:04.476Z,57.10
2022-08-26T09:01:12.063Z,55.96
2022-08-26T09:02:23.655Z,54.92
2022-08-26T09:03:36.515Z,53.92
2022-08-26T09:05:02.519Z,56.92
2022-08-26T09:06:06.951Z,55.36
2022-08-26T09:07:12.068Z,55.43
2022-08-26T09:08:19.846Z,59.92
2022-08-26T09:09:26.588Z,60.08
2022-08-26T09:10:35.178Z,64.06
2022-08-26T09:11:37.639Z,61.27
2022-08-26T09:12:40.440Z,61.50
2022-08-26T09:13:47.469Z,64.29
2022-08-26T09:14:51.125Z,63.97
2022-08-26T09:16:03.186Z,60.72
2022-08-26T09:17:12.370Z,58.63
2022-08-26T09:18:25.523Z,58.80
2022-08-26T09:19:32.359Z,57.27
2022-08-26T09:20:43.612Z,56.64
2022-08-26T09:21:55.108Z,59.15
2022-08-26T09:22:58.184Z,55.52
2022-08-26T09:24:00.222Z,54.53
2022-08-26T09:25:02.397Z,52.78
2022-08-26T09:26:17.802Z,52.15
2022-08-26T09:27:43.611Z,52.13
2022-08-26T09:28:48.395Z,51.56
2022-08-26T09:29:50.379Z,50.47
2022-08-26T09:31:00.570Z,51.50
2022-08-26T09:32:18.533Z,50.33
2022-08-26T09:33:27.397Z,52.75
2022-08-26T09:34:29.305Z,51.57
2022-08-26T09:35:36.476Z,51.21
2022-08-26T09:36:41.643Z,50.71
2022-08-26T09:38:53.268Z,51.09
2022-08-26T09:40:10.946Z,55.78
2022-08-26T09:41:27.904Z,54.54
2022-08-26T09:42:29.547Z,54.42
2022-08-26T09:43:32.634Z,52.90
2022-08-26T09:44:35.458Z,53.46
2022-08-26T09:45:38.079Z,52.35
2022-08-26T09:46:45.611Z,52.23
2022-08-26T09:47:54.262Z,54.27
2022-08-26T09:48:56.307Z,52.63
2022-08-26T09:50:02.007Z,55.01
2022-08-26T09:51:06.058Z,53.76
2022-08-26T09:52:19.570Z,51.82
2022-08-26T09:53:25.203Z,52.52
2022-08-26T09:54:32.490Z,52.69
2022-08-26T09:55:36.158Z,53.75
2022-08-26T09:56:39.300Z,52.57
2022-08-26T09:57:48.957Z,52.88
2022-08-26T09:58:52.290Z,52.12
2022-08-26T09:59:54.397Z,51.94
2022-08-26T10:00:57.865Z,52.73
2022-08-26T10:02:17.229Z,51.84
2022-08-26T10:03:25.141Z,52.48
2022-08-26T10:04:27.002Z,53.44
2022-08-26T10:05:31.830Z,53.56
2022-08-26T10:06:38.880Z,53.78
2022-08-26T10:07:45.213Z,53.31
2022-08-26T10:08:48.979Z,52.71
2022-08-26T10:09:52.515Z,51.01
2022-08-26T10:10:56.433Z,52.15
2022-08-26T10:12:02.013Z,53.25
2022-08-26T10:13:07.732Z,52.52
2022-08-26T10:14:15.554Z,53.46
2022-08-26T10:15:19.486Z,52.95
2022-08-26T10:16:27.504Z,53.32
2022-08-26T10:17:35.877Z,52.99
2022-08-26T10:18:42.218Z,53.75
2022-08-26T10:19:56.855Z,53.56
2022-08-26T10:21:03.938Z,52.91
2022-08-26T10:22:13.839Z,53.21
2022-08-26T10:23:18.617Z,53.23
2022-08-26T10:24:25.702Z,53.43
2022-08-26T10:25:33.786Z,54.64
2022-08-26T10:26:41.162Z,54.10
2022-08-26T10:27:51.305Z,53.65
2022-08-26T10:29:00.155Z,55.19
2022-08-26T10:30:07.458Z,60.06
2022-08-26T10:31:20.008Z,60.46
2022-08-26T10:32:29.689Z,58.94
2022-08-26T10:33:31.430Z,58.38
2022-08-26T10:34:33.513Z,58.08
2022-08-26T10:35:37.518Z,59.56
2022-08-26T10:37:05.193Z,57.68
2022-08-26T10:38:11.568Z,57.45
2022-08-26T10:39:22.654Z,57.25
2022-08-26T10:40:29.195Z,59.94
2022-08-26T10:41:36.176Z,60.52
2022-08-26T10:42:42.584Z,59.82
2022-08-26T10:43:51.562Z,58.11
2022-08-26T10:44:58.805Z,59.00
2022-08-26T10:46:06.963Z,59.36
2022-08-26T10:47:16.281Z,59.57
2022-08-26T10:48:27.558Z,57.64
2022-08-26T10:49:38.039Z,58.37
2022-08-26T10:50:43.657Z,59.09
2022-08-26T10:51:58.086Z,58.08
2022-08-26T10:53:05.329Z,59.67
2022-08-26T10:54:14.989Z,60.17
2022-08-26T10:55:23.092Z,59.38
2022-08-26T10:56:36.778Z,61.34
2022-08-26T10:57:47.180Z,60.11
2022-08-26T10:58:57.966Z,61.35
2022-08-26T11:00:07.501Z,60.72
2022-08-26T11:01:17.840Z,59.80
2022-08-26T11:02:30.873Z,59.58
2022-08-26T11:03:41.775Z,58.59
2022-08-26T11:04:49.445Z,60.54
2022-08-26T11:06:20.084Z,58.09
2022-08-26T11:07:41.261Z,59.11
2022-08-26T11:08:46.199Z,59.01
2022-08-26T11:09:48.174Z,62.37
2022-08-26T11:10:59.279Z,61.97
2022-08-26T11:12:05.106Z,62.19
2022-08-26T11:13:11.708Z,66.16
2022-08-26T11:14:46.068Z,65.35
2022-08-26T11:15:58.776Z,65.45
2022-08-26T11:17:04.242Z,64.26
2022-08-26T11:18:10.203Z,63.10
2022-08-26T11:19:59.033Z,63.34
2022-08-26T11:20:54.481Z,64.45
2022-08-26T11:22:04.387Z,63.53
2022-08-26T11:23:44.958Z,61.02
2022-08-26T11:25:12.961Z,61.94
2022-08-26T11:26:35.575Z,60.36
2022-08-26T11:28:03.327Z,59.96
2022-08-26T11:29:04.966Z,58.97
2022-08-26T11:30:47.362Z,59.45
2022-08-26T11:31:58.669Z,60.28
2022-08-26T11:33:02.315Z,59.84
2022-08-26T11:34:06.183Z,58.31
2022-08-26T11:35:10.072Z,60.37
2022-08-26T11:36:45.995Z,58.63
2022-08-26T11:37:50.052Z,60.11
2022-08-26T11:38:51.575Z,57.85
2022-08-26T11:39:57.277Z,59.37
2022-08-26T11:41:10.531Z,59.32
2022-08-26T11:42:27.771Z,59.79
2022-08-26T11:43:30.323Z,57.54
2022-08-26T11:44:38.699Z,64.65
2022-08-26T11:45:44.154Z,63.39
2022-08-26T11:46:53.767Z,64.04
2022-08-26T11:47:55.511Z,62.64
2022-08-26T11:49:03.789Z,64.13
2022-08-26T11:50:08.133Z,64.59
2022-08-26T11:51:11.758Z,62.92
2022-08-26T11:52:18.576Z,64.78
2022-08-26T11:53:23.908Z,63.64
2022-08-26T11:54:35.304Z,62.47
2022-08-26T11:55:43.174Z,62.23
2022-08-26T11:56:46.748Z,62.64
2022-08-26T11:57:53.172Z,64.24
2022-08-26T11:58:57.811Z,63.76
2022-08-26T12:00:00.156Z,62.13
2022-08-26T12:01:05.165Z,62.54
2022-08-26T12:02:15.157Z,58.49
2022-08-26T12:03:23.059Z,63.07
2022-08-26T12:04:31.522Z,59.60
2022-08-26T12:05:36.452Z,60.39
2022-08-26T12:06:47.500Z,61.21
2022-08-26T12:07:50.027Z,61.16
2022-08-26T12:08:57.511Z,61.02
2022-08-26T12:10:02.328Z,61.10
2022-08-26T12:11:06.253Z,58.48
2022-08-26T12:12:13.797Z,59.66
2022-08-26T12:13:22.088Z,56.90
2022-08-26T12:14:25.936Z,56.67
2022-08-26T12:15:31.893Z,55.29
2022-08-26T12:16:35.952Z,54.45
2022-08-26T12:17:38.033Z,55.53
2022-08-26T12:18:39.553Z,55.79
2022-08-26T12:19:42.835Z,57.38
2022-08-26T12:20:44.690Z,58.23
2022-08-26T12:21:48.802Z,56.19
2022-08-26T12:22:50.316Z,56.06
2022-08-26T12:23:55.057Z,58.25
2022-08-26T12:24:58.895Z,59.10
2022-08-26T12:26:07.154Z,58.85
2022-08-26T12:27:16.965Z,54.54
2022-08-26T12:28:18.872Z,52.74
2022-08-26T12:29:27.422Z,51.73
2022-08-26T12:30:29.006Z,55.60
2022-08-26T12:31:35.443Z,52.03
2022-08-26T12:32:39.339Z,51.17
2022-08-26T12:34:00.296Z,51.08
2022-08-26T12:36:17.811Z,51.33
2022-08-26T12:37:19.460Z,53.31
2022-08-26T12:38:22.299Z,51.34
2022-08-26T12:39:26.793Z,50.79
2022-08-26T12:40:33.749Z,49.94
2022-08-26T12:41:40.503Z,52.28
2022-08-26T12:42:42.325Z,49.63
2022-08-26T12:43:45.712Z,49.31
2022-08-26T12:44:53.191Z,50.85
2022-08-26T12:45:58.510Z,49.85
2022-08-26T12:47:06.160Z,51.91
2022-08-26T12:48:10.179Z,47.90
2022-08-26T12:49:11.940Z,53.78
2022-08-26T12:50:20.566Z,50.66
2022-08-26T12:51:25.544Z,52.38
2022-08-26T12:52:30.710Z,53.37
2022-08-26T12:53:34.442Z,50.76
2022-08-26T12:54:35.994Z,50.87
2022-08-26T12:55:41.539Z,47.89
2022-08-26T12:56:43.238Z,50.22
2022-08-26T12:57:44.831Z,49.85
2022-08-26T12:59:01.004Z,50.00
2022-08-26T13:00:28.737Z,52.02
2022-08-26T13:01:37.495Z,51.74
2022-08-26T13:02:39.063Z,46.71
2022-08-26T13:03:43.440Z,47.36
2022-08-26T13:04:45.026Z,49.44
2022-08-26T13:05:47.993Z,52.89
2022-08-26T13:06:49.479Z,50.41
2022-08-26T13:08:15.676Z,51.67
2022-08-26T13:09:30.345Z,51.37
2022-08-26T13:10:36.584Z,50.67
2022-08-26T13:11:58.941Z,51.26
2022-08-26T13:13:01.131Z,50.83
2022-08-26T13:14:07.558Z,50.24
2022-08-26T13:15:09.470Z,48.35
2022-08-26T13:16:11.643Z,48.91
2022-08-26T13:17:13.131Z,47.00
2022-08-26T13:18:14.615Z,46.24
2022-08-26T13:19:18.598Z,47.40
2022-08-26T13:20:20.226Z,48.78
2022-08-26T13:21:26.166Z,47.51
2022-08-26T13:22:27.680Z,50.42
2022-08-26T13:23:29.161Z,52.48
2022-08-26T13:24:33.999Z,51.25
2022-08-26T13:25:35.499Z,50.90
2022-08-26T13:26:37.228Z,51.03
2022-08-26T13:27:38.721Z,47.56
2022-08-26T13:28:40.245Z,47.10
2022-08-26T13:29:41.823Z,46.20
2022-08-26T13:30:47.645Z,49.07
2022-08-26T13:31:49.461Z,48.48
2022-08-26T13:32:57.082Z,48.14
2022-08-26T13:33:59.368Z,48.17
2022-08-26T13:35:05.499Z,47.70
2022-08-26T13:36:07.518Z,47.84
2022-08-26T13:37:10.335Z,46.93
2022-08-26T13:38:11.790Z,47.84
2022-08-26T13:39:21.087Z,48.22
2022-08-26T13:40:22.665Z,47.59
2022-08-26T13:41:29.586Z,47.19
2022-08-26T13:42:31.288Z,47.96
2022-08-26T13:43:32.830Z,47.58
2022-08-26T13:44:34.357Z,47.78
2022-08-26T13:45:35.940Z,48.94
2022-08-26T13:46:37.834Z,49.34
2022-08-26T13:47:39.450Z,51.41
2022-08-26T13:48:41.086Z,49.70
2022-08-26T13:49:46.266Z,49.87
2022-08-26T13:50:47.822Z,49.73
2022-08-26T13:51:49.340Z,47.33
2022-08-26T13:52:52.153Z,46.92
2022-08-26T13:53:54.239Z,48.48
2022-08-26T13:54:55.686Z,47.57
2022-08-26T13:55:57.808Z,46.92
2022-08-26T13:56:59.308Z,45.77